sensor_id;sensor_type;location;lat;lon;timestamp;pressure;altitude;pressure_sealevel;temperature;humidity
11987;BME280;6053;51.382;6.768;2023-01-31T00:00:14;102089.91;;;7.49;100.00
11987;BME280;6053;51.382;6.768;2023-01-31T00:02:42;102086.16;;;7.42;100.00
11987;BME280;6053;51.382;6.768;2023-01-31T00:05:12;102082.38;;;6.95;100.00
11987;BME280;6053;51.382;6.768;2023-01-31T00:07:41;102091.09;;;7.54;100.00
11987;BME280;6053;51.382;6.768;2023-01-31T00:10:10;102083.72;;;7.47;100.00
11987;BME280;6053;51.382;6.768;2023-01-31T00:12:39;102079.84;;;6.85;100.00
11987;BME280;6053;51.382;6.768;2023-01-31T00:15:08;102087.84;;;7.43;100.00
11987;BME280;6053;51.382;6.768;2023-01-31T00:17:39;102090.66;;;7.66;100.00
11987;BME280;6053;51.382;6.768;2023-01-31T00:20:09;102083.28;;;7.66;100.00
11987;BME280;6053;51.382;6.768;2023-01-31T00:22:40;102084.09;;;6.96;100.00
11987;BME280;6053;51.382;6.768;2023-01-31T00:25:08;102092.16;;;6.98;100.00
11987;BME280;6053;51.382;6.768;2023-01-31T00:27:37;102097.72;;;7.21;100.00
11987;BME280;6053;51.382;6.768;2023-01-31T00:30:07;102092.00;;;7.39;100.00
11987;BME280;6053;51.382;6.768;2023-01-31T00:32:36;102085.75;;;7.14;100.00
11987;BME280;6053;51.382;6.768;2023-01-31T00:35:05;102085.44;;;7.48;100.00
11987;BME280;6053;51.382;6.768;2023-01-31T00:37:34;102091.56;;;7.58;100.00
11987;BME280;6053;51.382;6.768;2023-01-31T00:40:06;102092.19;;;7.68;100.00
11987;BME280;6053;51.382;6.768;2023-01-31T00:42:35;102096.78;;;7.76;100.00
11987;BME280;6053;51.382;6.768;2023-01-31T00:45:05;102098.19;;;6.60;100.00
11987;BME280;6053;51.382;6.768;2023-01-31T00:47:34;102099.25;;;6.51;100.00
11987;BME280;6053;51.382;6.768;2023-01-31T00:50:04;102097.13;;;7.42;100.00
11987;BME280;6053;51.382;6.768;2023-01-31T00:52:33;102106.31;;;5.54;100.00
11987;BME280;6053;51.382;6.768;2023-01-31T00:55:04;102093.09;;;6.33;100.00
11987;BME280;6053;51.382;6.768;2023-01-31T00:57:33;102089.69;;;6.31;100.00
11987;BME280;6053;51.382;6.768;2023-01-31T01:00:03;102097.56;;;5.59;100.00
11987;BME280;6053;51.382;6.768;2023-01-31T01:02:31;102098.91;;;6.71;100.00
11987;BME280;6053;51.382;6.768;2023-01-31T01:05:01;102100.78;;;6.05;100.00
11987;BME280;6053;51.382;6.768;2023-01-31T01:07:29;102096.50;;;6.68;100.00
11987;BME280;6053;51.382;6.768;2023-01-31T01:09:59;102104.44;;;7.10;100.00
11987;BME280;6053;51.382;6.768;2023-01-31T01:12:29;102112.28;;;6.57;100.00
11987;BME280;6053;51.382;6.768;2023-01-31T01:14:58;102108.13;;;6.94;100.00
11987;BME280;6053;51.382;6.768;2023-01-31T01:17:26;102112.41;;;6.80;100.00
11987;BME280;6053;51.382;6.768;2023-01-31T01:19:55;102096.81;;;7.37;100.00
11987;BME280;6053;51.382;6.768;2023-01-31T01:22:23;102105.28;;;7.19;100.00
11987;BME280;6053;51.382;6.768;2023-01-31T01:24:52;102109.97;;;6.94;100.00
11987;BME280;6053;51.382;6.768;2023-01-31T01:27:21;102102.84;;;6.68;100.00
11987;BME280;6053;51.382;6.768;2023-01-31T01:29:50;102101.41;;;7.05;100.00
11987;BME280;6053;51.382;6.768;2023-01-31T01:32:19;102099.56;;;7.37;100.00
11987;BME280;6053;51.382;6.768;2023-01-31T01:34:48;102094.56;;;7.40;100.00
11987;BME280;6053;51.382;6.768;2023-01-31T01:37:16;102077.38;;;7.46;100.00
11987;BME280;6053;51.382;6.768;2023-01-31T01:39:47;102081.94;;;7.62;100.00
11987;BME280;6053;51.382;6.768;2023-01-31T01:42:17;102078.97;;;7.72;100.00
11987;BME280;6053;51.382;6.768;2023-01-31T01:44:50;102074.97;;;7.74;100.00
11987;BME280;6053;51.382;6.768;2023-01-31T01:47:27;102077.22;;;7.71;100.00
11987;BME280;6053;51.382;6.768;2023-01-31T01:50:02;102077.16;;;7.17;100.00
11987;BME280;6053;51.382;6.768;2023-01-31T01:52:34;102075.81;;;7.52;100.00
11987;BME280;6053;51.382;6.768;2023-01-31T01:55:11;102077.06;;;7.72;100.00
11987;BME280;6053;51.382;6.768;2023-01-31T01:57:45;102080.03;;;7.23;100.00
11987;BME280;6053;51.382;6.768;2023-01-31T02:00:20;102083.63;;;7.24;100.00
11987;BME280;6053;51.382;6.768;2023-01-31T02:02:51;102085.94;;;7.04;100.00
11987;BME280;6053;51.382;6.768;2023-01-31T02:05:23;102092.03;;;7.30;100.00
11987;BME280;6053;51.382;6.768;2023-01-31T02:07:53;102084.13;;;7.27;100.00
11987;BME280;6053;51.382;6.768;2023-01-31T02:10:25;102086.47;;;7.47;100.00
11987;BME280;6053;51.382;6.768;2023-01-31T02:12:55;102082.28;;;7.28;100.00
11987;BME280;6053;51.382;6.768;2023-01-31T02:15:25;102085.88;;;7.20;100.00
11987;BME280;6053;51.382;6.768;2023-01-31T02:17:54;102083.94;;;7.37;100.00
11987;BME280;6053;51.382;6.768;2023-01-31T02:20:47;102091.66;;;7.42;100.00
11987;BME280;6053;51.382;6.768;2023-01-31T02:23:47;102091.78;;;7.09;100.00
11987;BME280;6053;51.382;6.768;2023-01-31T02:26:49;102098.28;;;7.47;100.00
11987;BME280;6053;51.382;6.768;2023-01-31T02:29:32;102103.13;;;7.45;100.00
11987;BME280;6053;51.382;6.768;2023-01-31T02:32:39;102097.44;;;7.47;100.00
11987;BME280;6053;51.382;6.768;2023-01-31T02:35:19;102097.84;;;7.36;100.00
11987;BME280;6053;51.382;6.768;2023-01-31T02:38:07;102093.84;;;7.46;100.00
11987;BME280;6053;51.382;6.768;2023-01-31T02:40:50;102097.56;;;7.22;100.00
11987;BME280;6053;51.382;6.768;2023-01-31T02:43:29;102094.75;;;7.30;100.00
11987;BME280;6053;51.382;6.768;2023-01-31T02:46:24;102104.84;;;6.99;100.00
11987;BME280;6053;51.382;6.768;2023-01-31T02:49:03;102092.91;;;7.31;100.00
11987;BME280;6053;51.382;6.768;2023-01-31T02:51:37;102100.53;;;7.44;100.00
11987;BME280;6053;51.382;6.768;2023-01-31T02:54:12;102091.75;;;7.56;100.00
11987;BME280;6053;51.382;6.768;2023-01-31T02:56:44;102083.94;;;6.98;100.00
11987;BME280;6053;51.382;6.768;2023-01-31T02:59:16;102084.94;;;7.05;100.00
11987;BME280;6053;51.382;6.768;2023-01-31T03:01:54;102089.38;;;7.06;100.00
11987;BME280;6053;51.382;6.768;2023-01-31T03:04:28;102092.38;;;6.72;100.00
11987;BME280;6053;51.382;6.768;2023-01-31T03:07:03;102080.41;;;6.16;100.00
11987;BME280;6053;51.382;6.768;2023-01-31T03:09:44;102079.22;;;6.34;100.00
11987;BME280;6053;51.382;6.768;2023-01-31T03:15:30;102078.56;;;6.41;100.00
11987;BME280;6053;51.382;6.768;2023-01-31T03:18:19;102072.38;;;6.38;100.00
11987;BME280;6053;51.382;6.768;2023-01-31T03:20:58;102074.06;;;6.64;100.00
11987;BME280;6053;51.382;6.768;2023-01-31T03:23:29;102068.72;;;6.79;100.00
11987;BME280;6053;51.382;6.768;2023-01-31T03:26:00;102067.69;;;6.72;100.00
11987;BME280;6053;51.382;6.768;2023-01-31T03:28:32;102064.63;;;7.22;100.00
11987;BME280;6053;51.382;6.768;2023-01-31T03:31:06;102054.06;;;7.42;100.00
11987;BME280;6053;51.382;6.768;2023-01-31T03:33:41;102059.34;;;6.16;100.00
11987;BME280;6053;51.382;6.768;2023-01-31T03:36:19;102061.91;;;6.58;100.00
11987;BME280;6053;51.382;6.768;2023-01-31T03:39:05;102053.81;;;6.73;100.00
11987;BME280;6053;51.382;6.768;2023-01-31T03:41:45;102054.22;;;6.29;100.00
11987;BME280;6053;51.382;6.768;2023-01-31T03:44:19;102050.44;;;6.30;100.00
11987;BME280;6053;51.382;6.768;2023-01-31T03:46:56;102043.75;;;6.49;100.00
11987;BME280;6053;51.382;6.768;2023-01-31T03:49:27;102039.84;;;6.27;100.00
11987;BME280;6053;51.382;6.768;2023-01-31T03:52:01;102041.72;;;6.19;100.00
11987;BME280;6053;51.382;6.768;2023-01-31T03:54:35;102035.53;;;6.41;100.00
11987;BME280;6053;51.382;6.768;2023-01-31T03:57:12;102033.38;;;6.84;100.00
11987;BME280;6053;51.382;6.768;2023-01-31T03:59:45;102037.00;;;6.76;100.00
11987;BME280;6053;51.382;6.768;2023-01-31T04:02:16;102019.84;;;6.82;100.00
11987;BME280;6053;51.382;6.768;2023-01-31T04:04:48;102023.03;;;7.02;100.00
11987;BME280;6053;51.382;6.768;2023-01-31T04:07:20;102019.00;;;6.74;100.00
11987;BME280;6053;51.382;6.768;2023-01-31T04:09:49;102018.53;;;6.62;100.00
11987;BME280;6053;51.382;6.768;2023-01-31T04:12:17;102016.41;;;5.25;100.00
11987;BME280;6053;51.382;6.768;2023-01-31T04:14:46;102003.22;;;6.04;100.00
11987;BME280;6053;51.382;6.768;2023-01-31T04:17:14;102004.47;;;6.57;100.00
11987;BME280;6053;51.382;6.768;2023-01-31T04:19:43;102006.81;;;6.84;100.00
11987;BME280;6053;51.382;6.768;2023-01-31T04:22:12;102014.25;;;6.68;100.00
11987;BME280;6053;51.382;6.768;2023-01-31T04:24:42;102012.44;;;6.91;100.00
11987;BME280;6053;51.382;6.768;2023-01-31T04:27:10;102019.44;;;6.94;100.00
11987;BME280;6053;51.382;6.768;2023-01-31T04:29:39;102019.91;;;5.76;100.00
11987;BME280;6053;51.382;6.768;2023-01-31T04:32:07;102018.00;;;6.67;100.00
11987;BME280;6053;51.382;6.768;2023-01-31T04:34:36;102015.66;;;7.03;100.00
11987;BME280;6053;51.382;6.768;2023-01-31T04:37:05;102018.13;;;7.21;100.00
11987;BME280;6053;51.382;6.768;2023-01-31T04:39:34;102015.84;;;6.13;100.00
11987;BME280;6053;51.382;6.768;2023-01-31T04:42:04;102025.66;;;6.88;100.00
11987;BME280;6053;51.382;6.768;2023-01-31T04:44:33;102022.13;;;6.63;100.00
11987;BME280;6053;51.382;6.768;2023-01-31T04:47:01;102023.91;;;6.23;100.00
11987;BME280;6053;51.382;6.768;2023-01-31T04:49:30;102015.34;;;6.01;100.00
11987;BME280;6053;51.382;6.768;2023-01-31T04:51:59;102019.81;;;5.94;100.00
11987;BME280;6053;51.382;6.768;2023-01-31T04:54:27;102018.63;;;5.30;100.00
11987;BME280;6053;51.382;6.768;2023-01-31T04:56:56;102012.44;;;6.03;100.00
11987;BME280;6053;51.382;6.768;2023-01-31T04:59:26;102003.34;;;5.78;100.00
11987;BME280;6053;51.382;6.768;2023-01-31T05:01:55;101996.97;;;6.43;100.00
11987;BME280;6053;51.382;6.768;2023-01-31T05:04:23;101998.59;;;6.04;100.00
11987;BME280;6053;51.382;6.768;2023-01-31T05:06:52;102000.09;;;6.07;100.00
11987;BME280;6053;51.382;6.768;2023-01-31T05:09:21;101997.38;;;5.99;100.00
11987;BME280;6053;51.382;6.768;2023-01-31T05:11:51;102005.25;;;6.18;100.00
11987;BME280;6053;51.382;6.768;2023-01-31T05:14:19;101995.50;;;6.79;100.00
11987;BME280;6053;51.382;6.768;2023-01-31T05:16:49;101992.69;;;6.40;100.00
11987;BME280;6053;51.382;6.768;2023-01-31T05:19:18;101988.78;;;6.34;100.00
11987;BME280;6053;51.382;6.768;2023-01-31T05:21:46;101993.16;;;6.60;100.00
11987;BME280;6053;51.382;6.768;2023-01-31T05:24:26;101983.34;;;5.94;100.00
11987;BME280;6053;51.382;6.768;2023-01-31T05:26:57;101989.84;;;6.09;100.00
11987;BME280;6053;51.382;6.768;2023-01-31T05:29:27;101991.75;;;6.00;100.00
11987;BME280;6053;51.382;6.768;2023-01-31T05:32:00;101981.72;;;6.40;100.00
11987;BME280;6053;51.382;6.768;2023-01-31T05:34:30;101975.31;;;6.72;100.00
11987;BME280;6053;51.382;6.768;2023-01-31T05:37:00;101983.78;;;6.54;100.00
11987;BME280;6053;51.382;6.768;2023-01-31T05:39:29;101969.88;;;6.56;100.00
11987;BME280;6053;51.382;6.768;2023-01-31T05:41:58;101972.47;;;6.57;100.00
11987;BME280;6053;51.382;6.768;2023-01-31T05:44:27;101965.03;;;5.94;100.00
11987;BME280;6053;51.382;6.768;2023-01-31T05:46:57;101963.28;;;6.26;100.00
11987;BME280;6053;51.382;6.768;2023-01-31T05:49:27;101961.56;;;5.51;100.00
11987;BME280;6053;51.382;6.768;2023-01-31T05:51:59;101955.56;;;5.56;100.00
11987;BME280;6053;51.382;6.768;2023-01-31T05:54:28;101961.09;;;6.05;100.00
11987;BME280;6053;51.382;6.768;2023-01-31T05:56:57;101959.19;;;6.22;100.00
11987;BME280;6053;51.382;6.768;2023-01-31T05:59:26;101942.84;;;6.36;100.00
11987;BME280;6053;51.382;6.768;2023-01-31T06:01:58;101936.91;;;6.72;100.00
11987;BME280;6053;51.382;6.768;2023-01-31T06:04:27;101932.78;;;6.29;100.00
11987;BME280;6053;51.382;6.768;2023-01-31T06:06:56;101935.22;;;5.66;100.00
11987;BME280;6053;51.382;6.768;2023-01-31T06:09:25;101930.78;;;5.74;100.00
11987;BME280;6053;51.382;6.768;2023-01-31T06:11:53;101938.09;;;6.22;100.00
11987;BME280;6053;51.382;6.768;2023-01-31T06:14:22;101946.34;;;5.89;100.00
11987;BME280;6053;51.382;6.768;2023-01-31T06:16:51;101940.00;;;6.69;100.00
11987;BME280;6053;51.382;6.768;2023-01-31T06:19:21;101944.16;;;7.04;100.00
11987;BME280;6053;51.382;6.768;2023-01-31T06:21:51;101955.41;;;7.18;100.00
11987;BME280;6053;51.382;6.768;2023-01-31T06:24:20;101947.47;;;7.23;100.00
11987;BME280;6053;51.382;6.768;2023-01-31T06:26:48;101956.81;;;7.37;100.00
11987;BME280;6053;51.382;6.768;2023-01-31T06:29:17;101958.50;;;7.38;100.00
11987;BME280;6053;51.382;6.768;2023-01-31T06:31:46;101957.53;;;7.30;100.00
11987;BME280;6053;51.382;6.768;2023-01-31T06:34:14;101957.50;;;6.68;100.00
11987;BME280;6053;51.382;6.768;2023-01-31T06:36:44;101951.63;;;6.79;100.00
11987;BME280;6053;51.382;6.768;2023-01-31T06:39:13;101955.94;;;6.10;100.00
11987;BME280;6053;51.382;6.768;2023-01-31T06:41:42;101949.75;;;5.91;100.00
11987;BME280;6053;51.382;6.768;2023-01-31T06:44:11;101942.91;;;5.55;100.00
11987;BME280;6053;51.382;6.768;2023-01-31T06:46:39;101935.22;;;6.16;100.00
11987;BME280;6053;51.382;6.768;2023-01-31T06:49:08;101954.91;;;6.27;100.00
11987;BME280;6053;51.382;6.768;2023-01-31T06:51:36;101950.78;;;5.82;100.00
11987;BME280;6053;51.382;6.768;2023-01-31T06:54:06;101955.06;;;5.68;100.00
11987;BME280;6053;51.382;6.768;2023-01-31T06:56:35;101959.31;;;5.38;100.00
11987;BME280;6053;51.382;6.768;2023-01-31T06:59:03;101958.44;;;5.22;100.00
11987;BME280;6053;51.382;6.768;2023-01-31T07:01:32;101960.50;;;5.28;100.00
11987;BME280;6053;51.382;6.768;2023-01-31T07:04:01;101968.59;;;5.62;100.00
11987;BME280;6053;51.382;6.768;2023-01-31T07:06:29;101955.59;;;5.64;100.00
11987;BME280;6053;51.382;6.768;2023-01-31T07:08:58;101950.75;;;5.25;100.00
11987;BME280;6053;51.382;6.768;2023-01-31T07:11:28;101960.63;;;5.10;100.00
11987;BME280;6053;51.382;6.768;2023-01-31T07:13:57;101946.16;;;5.66;100.00
11987;BME280;6053;51.382;6.768;2023-01-31T07:16:26;101960.72;;;6.00;100.00
11987;BME280;6053;51.382;6.768;2023-01-31T07:18:55;101950.09;;;5.48;100.00
11987;BME280;6053;51.382;6.768;2023-01-31T07:21:24;101935.22;;;5.58;100.00
11987;BME280;6053;51.382;6.768;2023-01-31T07:23:53;101947.03;;;5.59;100.00
11987;BME280;6053;51.382;6.768;2023-01-31T07:26:21;101945.47;;;6.22;100.00
11987;BME280;6053;51.382;6.768;2023-01-31T07:28:51;101942.22;;;5.85;100.00
11987;BME280;6053;51.382;6.768;2023-01-31T07:31:20;101940.00;;;5.73;100.00
11987;BME280;6053;51.382;6.768;2023-01-31T07:33:48;101939.13;;;6.29;100.00
11987;BME280;6053;51.382;6.768;2023-01-31T07:36:17;101957.16;;;5.99;100.00
11987;BME280;6053;51.382;6.768;2023-01-31T07:38:53;101951.16;;;5.87;100.00
11987;BME280;6053;51.382;6.768;2023-01-31T07:41:23;101948.72;;;5.35;100.00
11987;BME280;6053;51.382;6.768;2023-01-31T07:43:53;101936.09;;;5.67;100.00
11987;BME280;6053;51.382;6.768;2023-01-31T07:46:22;101932.16;;;6.10;100.00
11987;BME280;6053;51.382;6.768;2023-01-31T07:48:50;101926.31;;;6.69;100.00
11987;BME280;6053;51.382;6.768;2023-01-31T07:51:19;101920.94;;;6.45;100.00
11987;BME280;6053;51.382;6.768;2023-01-31T07:53:48;101921.34;;;5.60;100.00
11987;BME280;6053;51.382;6.768;2023-01-31T07:56:18;101914.84;;;6.10;100.00
11987;BME280;6053;51.382;6.768;2023-01-31T07:58:48;101912.63;;;6.05;100.00
11987;BME280;6053;51.382;6.768;2023-01-31T08:01:21;101916.56;;;5.62;100.00
11987;BME280;6053;51.382;6.768;2023-01-31T08:04:08;101913.31;;;6.63;100.00
11987;BME280;6053;51.382;6.768;2023-01-31T08:06:49;101914.44;;;6.29;100.00
11987;BME280;6053;51.382;6.768;2023-01-31T08:09:20;101921.03;;;5.71;100.00
11987;BME280;6053;51.382;6.768;2023-01-31T08:11:49;101908.00;;;6.06;100.00
11987;BME280;6053;51.382;6.768;2023-01-31T08:14:18;101907.41;;;6.35;100.00
11987;BME280;6053;51.382;6.768;2023-01-31T08:16:53;101902.44;;;6.30;100.00
11987;BME280;6053;51.382;6.768;2023-01-31T08:19:21;101890.53;;;6.07;100.00
11987;BME280;6053;51.382;6.768;2023-01-31T08:21:50;101903.22;;;6.55;100.00
11987;BME280;6053;51.382;6.768;2023-01-31T08:24:19;101894.84;;;6.01;100.00
11987;BME280;6053;51.382;6.768;2023-01-31T08:26:47;101894.69;;;5.62;100.00
11987;BME280;6053;51.382;6.768;2023-01-31T08:29:16;101893.78;;;5.86;100.00
11987;BME280;6053;51.382;6.768;2023-01-31T08:31:45;101896.81;;;6.32;100.00
11987;BME280;6053;51.382;6.768;2023-01-31T08:34:18;101911.94;;;6.03;100.00
11987;BME280;6053;51.382;6.768;2023-01-31T08:36:47;101890.53;;;6.15;100.00
11987;BME280;6053;51.382;6.768;2023-01-31T08:39:16;101904.38;;;6.22;100.00
11987;BME280;6053;51.382;6.768;2023-01-31T08:41:45;101895.19;;;6.54;100.00
11987;BME280;6053;51.382;6.768;2023-01-31T08:44:14;101883.31;;;6.22;100.00
11987;BME280;6053;51.382;6.768;2023-01-31T08:46:42;101889.53;;;6.08;100.00
11987;BME280;6053;51.382;6.768;2023-01-31T08:49:12;101889.38;;;5.44;100.00
11987;BME280;6053;51.382;6.768;2023-01-31T08:51:42;101884.34;;;6.13;100.00
11987;BME280;6053;51.382;6.768;2023-01-31T08:54:11;101869.84;;;5.96;100.00
11987;BME280;6053;51.382;6.768;2023-01-31T08:56:40;101864.13;;;6.22;100.00
11987;BME280;6053;51.382;6.768;2023-01-31T08:59:10;101867.28;;;5.78;100.00
11987;BME280;6053;51.382;6.768;2023-01-31T09:01:38;101857.34;;;5.85;100.00
11987;BME280;6053;51.382;6.768;2023-01-31T09:04:08;101849.16;;;5.77;100.00
11987;BME280;6053;51.382;6.768;2023-01-31T09:06:37;101853.63;;;5.70;100.00
11987;BME280;6053;51.382;6.768;2023-01-31T09:09:07;101848.69;;;6.29;100.00
11987;BME280;6053;51.382;6.768;2023-01-31T09:11:37;101844.00;;;5.90;100.00
11987;BME280;6053;51.382;6.768;2023-01-31T09:14:05;101845.75;;;5.51;100.00
11987;BME280;6053;51.382;6.768;2023-01-31T09:16:34;101843.88;;;6.31;100.00
11987;BME280;6053;51.382;6.768;2023-01-31T09:19:03;101845.72;;;6.47;100.00
11987;BME280;6053;51.382;6.768;2023-01-31T09:21:31;101841.63;;;5.63;100.00
11987;BME280;6053;51.382;6.768;2023-01-31T09:24:00;101848.38;;;6.16;100.00
11987;BME280;6053;51.382;6.768;2023-01-31T09:26:31;101841.94;;;6.40;100.00
11987;BME280;6053;51.382;6.768;2023-01-31T09:29:00;101839.81;;;6.19;100.00
11987;BME280;6053;51.382;6.768;2023-01-31T09:31:29;101835.81;;;6.38;100.00
11987;BME280;6053;51.382;6.768;2023-01-31T09:33:58;101833.44;;;6.27;100.00
11987;BME280;6053;51.382;6.768;2023-01-31T09:36:27;101836.66;;;5.75;100.00
11987;BME280;6053;51.382;6.768;2023-01-31T09:38:56;101831.19;;;5.66;100.00
11987;BME280;6053;51.382;6.768;2023-01-31T09:41:30;101831.94;;;6.16;100.00
11987;BME280;6053;51.382;6.768;2023-01-31T09:44:03;101837.47;;;5.91;100.00
11987;BME280;6053;51.382;6.768;2023-01-31T09:46:36;101830.19;;;5.67;100.00
11987;BME280;6053;51.382;6.768;2023-01-31T09:49:13;101819.16;;;5.92;100.00
11987;BME280;6053;51.382;6.768;2023-01-31T09:51:43;101831.06;;;5.43;100.00
11987;BME280;6053;51.382;6.768;2023-01-31T09:54:18;101829.81;;;5.79;100.00
11987;BME280;6053;51.382;6.768;2023-01-31T09:56:58;101823.34;;;5.55;100.00
11987;BME280;6053;51.382;6.768;2023-01-31T09:59:34;101818.16;;;5.93;100.00
11987;BME280;6053;51.382;6.768;2023-01-31T10:02:18;101813.13;;;6.13;100.00
11987;BME280;6053;51.382;6.768;2023-01-31T10:05:05;101814.66;;;6.24;100.00
11987;BME280;6053;51.382;6.768;2023-01-31T10:07:48;101800.59;;;6.19;100.00
11987;BME280;6053;51.382;6.768;2023-01-31T10:10:24;101804.38;;;5.37;100.00
11987;BME280;6053;51.382;6.768;2023-01-31T10:13:02;101796.53;;;5.18;100.00
11987;BME280;6053;51.382;6.768;2023-01-31T10:15:35;101798.69;;;5.72;100.00
11987;BME280;6053;51.382;6.768;2023-01-31T10:18:11;101775.44;;;5.67;100.00
11987;BME280;6053;51.382;6.768;2023-01-31T10:20:45;101778.97;;;5.84;100.00
11987;BME280;6053;51.382;6.768;2023-01-31T10:23:21;101776.00;;;6.10;100.00
11987;BME280;6053;51.382;6.768;2023-01-31T10:25:56;101771.41;;;5.86;100.00
11987;BME280;6053;51.382;6.768;2023-01-31T10:28:32;101770.81;;;6.16;100.00
11987;BME280;6053;51.382;6.768;2023-01-31T10:31:06;101766.25;;;6.08;100.00
11987;BME280;6053;51.382;6.768;2023-01-31T10:33:46;101761.97;;;6.05;100.00
11987;BME280;6053;51.382;6.768;2023-01-31T10:36:24;101751.34;;;6.42;100.00
11987;BME280;6053;51.382;6.768;2023-01-31T10:38:59;101752.91;;;5.97;100.00
11987;BME280;6053;51.382;6.768;2023-01-31T10:41:37;101754.47;;;6.84;100.00
11987;BME280;6053;51.382;6.768;2023-01-31T10:44:19;101765.84;;;6.19;100.00
11987;BME280;6053;51.382;6.768;2023-01-31T10:46:50;101754.88;;;6.19;100.00
11987;BME280;6053;51.382;6.768;2023-01-31T10:49:20;101737.88;;;6.32;100.00
11987;BME280;6053;51.382;6.768;2023-01-31T10:52:06;101758.47;;;6.74;100.00
11987;BME280;6053;51.382;6.768;2023-01-31T10:54:51;101754.50;;;6.53;100.00
11987;BME280;6053;51.382;6.768;2023-01-31T10:57:21;101750.59;;;6.17;100.00
11987;BME280;6053;51.382;6.768;2023-01-31T10:59:53;101760.41;;;6.42;100.00
11987;BME280;6053;51.382;6.768;2023-01-31T11:02:24;101753.59;;;6.38;100.00
11987;BME280;6053;51.382;6.768;2023-01-31T11:04:55;101757.72;;;6.34;100.00
11987;BME280;6053;51.382;6.768;2023-01-31T11:07:27;101755.78;;;6.11;100.00
11987;BME280;6053;51.382;6.768;2023-01-31T11:09:56;101752.28;;;6.26;100.00
11987;BME280;6053;51.382;6.768;2023-01-31T11:12:39;101747.91;;;6.08;100.00
11987;BME280;6053;51.382;6.768;2023-01-31T11:15:17;101731.97;;;6.12;100.00
11987;BME280;6053;51.382;6.768;2023-01-31T11:17:46;101734.16;;;6.17;100.00
11987;BME280;6053;51.382;6.768;2023-01-31T11:20:21;101717.28;;;6.36;100.00
11987;BME280;6053;51.382;6.768;2023-01-31T11:22:51;101718.84;;;6.30;100.00
11987;BME280;6053;51.382;6.768;2023-01-31T11:25:22;101722.34;;;6.16;100.00
11987;BME280;6053;51.382;6.768;2023-01-31T11:27:53;101724.97;;;6.09;100.00
11987;BME280;6053;51.382;6.768;2023-01-31T11:30:28;101710.81;;;6.29;100.00
11987;BME280;6053;51.382;6.768;2023-01-31T11:32:58;101712.00;;;6.34;100.00
11987;BME280;6053;51.382;6.768;2023-01-31T11:35:29;101711.09;;;6.11;100.00
11987;BME280;6053;51.382;6.768;2023-01-31T11:37:59;101713.66;;;6.12;100.00
11987;BME280;6053;51.382;6.768;2023-01-31T11:40:30;101707.31;;;6.12;100.00
11987;BME280;6053;51.382;6.768;2023-01-31T11:43:01;101691.59;;;6.60;100.00
11987;BME280;6053;51.382;6.768;2023-01-31T11:45:33;101702.66;;;6.67;100.00
11987;BME280;6053;51.382;6.768;2023-01-31T11:48:06;101698.41;;;6.41;100.00
11987;BME280;6053;51.382;6.768;2023-01-31T11:50:40;101693.44;;;6.45;100.00
11987;BME280;6053;51.382;6.768;2023-01-31T11:53:16;101687.72;;;6.54;100.00
11987;BME280;6053;51.382;6.768;2023-01-31T11:55:47;101695.59;;;6.26;100.00
11987;BME280;6053;51.382;6.768;2023-01-31T11:58:19;101687.94;;;6.68;100.00
11987;BME280;6053;51.382;6.768;2023-01-31T12:00:54;101694.75;;;6.49;100.00
11987;BME280;6053;51.382;6.768;2023-01-31T12:03:24;101696.28;;;6.51;100.00
11987;BME280;6053;51.382;6.768;2023-01-31T12:05:59;101692.03;;;6.72;100.00
11987;BME280;6053;51.382;6.768;2023-01-31T12:08:30;101692.56;;;6.21;100.00
11987;BME280;6053;51.382;6.768;2023-01-31T12:11:03;101696.03;;;6.38;100.00
11987;BME280;6053;51.382;6.768;2023-01-31T12:13:45;101692.84;;;6.26;100.00
11987;BME280;6053;51.382;6.768;2023-01-31T12:16:19;101692.72;;;6.20;100.00
11987;BME280;6053;51.382;6.768;2023-01-31T12:18:57;101687.22;;;6.51;100.00
11987;BME280;6053;51.382;6.768;2023-01-31T12:21:43;101702.13;;;6.48;100.00
11987;BME280;6053;51.382;6.768;2023-01-31T12:24:28;101701.53;;;6.38;100.00
11987;BME280;6053;51.382;6.768;2023-01-31T12:27:08;101684.41;;;6.05;100.00
11987;BME280;6053;51.382;6.768;2023-01-31T12:29:51;101677.69;;;6.38;100.00
11987;BME280;6053;51.382;6.768;2023-01-31T12:32:36;101685.44;;;6.58;100.00
11987;BME280;6053;51.382;6.768;2023-01-31T12:38:42;101659.56;;;6.37;100.00
11987;BME280;6053;51.382;6.768;2023-01-31T12:41:22;101653.84;;;6.24;100.00
11987;BME280;6053;51.382;6.768;2023-01-31T12:47:02;101644.63;;;6.40;100.00
11987;BME280;6053;51.382;6.768;2023-01-31T12:49:55;101651.00;;;6.78;100.00
11987;BME280;6053;51.382;6.768;2023-01-31T12:52:31;101640.53;;;6.36;100.00
11987;BME280;6053;51.382;6.768;2023-01-31T12:55:15;101637.16;;;6.34;100.00
11987;BME280;6053;51.382;6.768;2023-01-31T12:57:53;101644.63;;;6.40;100.00
11987;BME280;6053;51.382;6.768;2023-01-31T13:00:31;101649.81;;;6.58;100.00
11987;BME280;6053;51.382;6.768;2023-01-31T13:03:15;101645.94;;;6.67;100.00
11987;BME280;6053;51.382;6.768;2023-01-31T13:05:53;101647.94;;;6.73;100.00
11987;BME280;6053;51.382;6.768;2023-01-31T13:08:27;101658.28;;;6.48;100.00
11987;BME280;6053;51.382;6.768;2023-01-31T13:10:59;101646.88;;;6.36;100.00
11987;BME280;6053;51.382;6.768;2023-01-31T13:13:32;101651.81;;;6.64;100.00
11987;BME280;6053;51.382;6.768;2023-01-31T13:16:10;101646.97;;;6.66;100.00
11987;BME280;6053;51.382;6.768;2023-01-31T13:18:41;101659.94;;;6.57;100.00
11987;BME280;6053;51.382;6.768;2023-01-31T13:21:15;101659.72;;;6.82;100.00
11987;BME280;6053;51.382;6.768;2023-01-31T13:23:47;101655.41;;;7.17;100.00
11987;BME280;6053;51.382;6.768;2023-01-31T13:26:19;101652.19;;;6.99;100.00
11987;BME280;6053;51.382;6.768;2023-01-31T13:28:54;101651.47;;;6.82;100.00
11987;BME280;6053;51.382;6.768;2023-01-31T13:31:26;101646.53;;;7.30;100.00
11987;BME280;6053;51.382;6.768;2023-01-31T13:34:00;101651.69;;;7.84;100.00
11987;BME280;6053;51.382;6.768;2023-01-31T13:36:40;101648.53;;;7.21;100.00